Time;durP1;ratioP1;P1;durP2;ratioP2;P2;SDS_P1;SDS_P2;PMS_P1;PMS_P2;Temp;Humidity;BMP_temperature;BMP_pressure;BME280_temperature;BME280_humidity;BME280_pressure;Samples;Min_cycle;Max_cycle;Signal;HPM_P1;HPM_P2
2021/12/31 00:01:43;;;;;;;13.93;2.38;;;13.10;99.90;;;;;;5091461;28;20047;-72
2021/12/31 00:04:08;;;;;;;10.85;2.25;;;13.20;99.90;;;;;;5087981;28;20055;-73
2021/12/31 00:06:34;;;;;;;11.02;2.10;;;13.20;99.90;;;;;;5112311;28;20518;-73
2021/12/31 00:09:00;;;;;;;8.52;2.28;;;13.10;99.90;;;;;;5076709;28;20040;-73
2021/12/31 00:11:25;;;;;;;9.07;2.05;;;13.10;99.90;;;;;;5091587;28;20515;-73
2021/12/31 00:13:51;;;;;;;8.63;2.25;;;13.10;99.90;;;;;;5092304;28;20032;-73
2021/12/31 00:16:16;;;;;;;11.10;2.28;;;13.20;99.90;;;;;;5091792;28;20430;-72
2021/12/31 00:18:42;;;;;;;14.32;2.03;;;13.20;99.90;;;;;;5125584;27;20050;-73
2021/12/31 00:21:07;;;;;;;9.82;2.33;;;13.10;99.90;;;;;;5074862;28;20135;-73
2021/12/31 00:23:33;;;;;;;8.98;2.28;;;13.10;99.90;;;;;;5074733;28;20036;-72
2021/12/31 00:25:59;;;;;;;9.27;2.42;;;13.10;99.90;;;;;;5074644;28;20393;-72
2021/12/31 00:28:24;;;;;;;9.32;2.08;;;13.00;99.90;;;;;;5092724;28;20044;-72
2021/12/31 00:30:55;;;;;;;12.23;2.13;;;13.10;99.90;;;;;;5091533;28;20036;-72
2021/12/31 00:33:22;;;;;;;10.30;2.00;;;13.10;99.90;;;;;;5103414;28;20043;-73
2021/12/31 00:35:48;;;;;;;12.65;2.50;;;13.00;99.90;;;;;;5112784;28;20074;-72
2021/12/31 00:38:14;;;;;;;11.25;2.15;;;13.00;99.90;;;;;;5111407;27;20120;-72
2021/12/31 00:40:40;;;;;;;9.05;2.20;;;13.10;99.90;;;;;;5098848;28;20033;-73
2021/12/31 00:43:11;;;;;;;11.50;2.13;;;13.10;99.90;;;;;;5098044;28;20047;-72
2021/12/31 00:45:39;;;;;;;9.57;2.08;;;13.10;99.90;;;;;;5127719;27;20043;-72
2021/12/31 00:48:05;;;;;;;10.15;2.58;;;13.10;99.90;;;;;;5111843;28;20122;-73
2021/12/31 00:50:31;;;;;;;10.98;3.05;;;13.00;99.90;;;;;;5137929;27;20515;-73
2021/12/31 00:52:56;;;;;;;10.77;2.65;;;13.10;99.90;;;;;;5077699;28;20454;-72
2021/12/31 00:55:22;;;;;;;14.05;2.75;;;13.10;99.90;;;;;;5094713;28;20039;-73
2021/12/31 00:57:48;;;;;;;11.52;2.10;;;13.10;99.90;;;;;;5108714;28;20040;-73
2021/12/31 01:00:15;;;;;;;12.57;2.50;;;13.10;99.90;;;;;;5095885;28;20047;-73
2021/12/31 01:02:43;;;;;;;11.00;2.00;;;13.10;99.90;;;;;;5114842;28;20071;-73
2021/12/31 01:05:10;;;;;;;6.32;1.70;;;13.00;99.90;;;;;;5096835;28;20096;-73
2021/12/31 01:07:35;;;;;;;12.48;2.70;;;13.00;99.90;;;;;;5113985;28;20380;-73
2021/12/31 01:10:02;;;;;;;14.80;2.88;;;13.00;99.90;;;;;;5107104;28;20096;-73
2021/12/31 01:12:27;;;;;;;14.40;2.58;;;12.90;99.90;;;;;;5094215;28;20119;-73
2021/12/31 01:15:01;;;;;;;11.27;2.47;;;12.90;99.90;;;;;;5110929;28;20126;-73
2021/12/31 01:19:44;;;;;;;13.77;3.15;;;12.90;99.90;;;;;;5094357;28;20035;-73
2021/12/31 01:20:22;;;;;;;12.85;3.20;;;12.90;99.90;;;;;;5080701;28;20122;-73
2021/12/31 01:22:48;;;;;;;14.00;2.60;;;12.90;99.90;;;;;;5077345;28;20047;-73
2021/12/31 01:25:14;;;;;;;12.95;3.63;;;12.90;99.90;;;;;;5077463;28;20084;-73
2021/12/31 01:27:42;;;;;;;10.95;2.28;;;12.90;99.90;;;;;;5109442;28;20499;-73
2021/12/31 01:30:10;;;;;;;12.00;3.30;;;12.80;99.90;;;;;;5078082;28;20036;-73
2021/12/31 01:32:36;;;;;;;15.63;3.33;;;12.90;99.90;;;;;;5091162;28;20099;-73
2021/12/31 01:35:02;;;;;;;8.68;2.03;;;12.90;99.90;;;;;;5114213;28;20530;-73
2021/12/31 01:37:28;;;;;;;9.98;3.08;;;13.10;99.90;;;;;;5096574;28;20403;-73
2021/12/31 01:39:54;;;;;;;12.50;3.13;;;13.00;99.90;;;;;;5148452;27;20036;-73
2021/12/31 01:42:27;;;;;;;12.93;3.08;;;12.90;99.90;;;;;;5118262;27;20040;-73
2021/12/31 01:44:57;;;;;;;14.73;2.97;;;12.90;99.90;;;;;;5100666;28;20047;-73
2021/12/31 01:47:33;;;;;;;11.75;2.97;;;12.80;99.90;;;;;;5118000;27;20040;-73
2021/12/31 01:50:04;;;;;;;14.15;3.22;;;12.80;99.90;;;;;;5093640;28;20047;-73
2021/12/31 01:52:30;;;;;;;14.80;3.00;;;12.90;99.90;;;;;;5089772;28;20042;-73
2021/12/31 01:54:56;;;;;;;15.05;3.15;;;12.90;99.90;;;;;;5131227;27;20392;-73
2021/12/31 01:57:23;;;;;;;14.07;3.33;;;12.90;99.90;;;;;;5118291;27;20101;-73
2021/12/31 01:59:49;;;;;;;13.80;3.40;;;13.00;99.90;;;;;;5076710;28;20439;-72
2021/12/31 02:02:15;;;;;;;13.20;3.38;;;12.80;99.90;;;;;;5119234;27;20073;-73
2021/12/31 02:04:41;;;;;;;14.30;3.17;;;12.90;99.90;;;;;;5128457;27;20039;-73
2021/12/31 02:07:07;;;;;;;15.50;3.15;;;13.00;99.90;;;;;;5113610;28;20047;-72
2021/12/31 02:09:43;;;;;;;12.05;2.85;;;12.90;99.90;;;;;;5095613;28;20035;-72
2021/12/31 02:12:11;;;;;;;9.30;2.20;;;13.00;99.90;;;;;;5095540;28;20123;-72
2021/12/31 02:14:37;;;;;;;7.50;1.70;;;13.00;99.90;;;;;;5112568;28;20487;-72
2021/12/31 02:17:09;;;;;;;13.45;2.80;;;13.10;99.90;;;;;;5113128;28;20039;-72
2021/12/31 02:19:35;;;;;;;11.55;2.60;;;13.10;99.90;;;;;;5110271;28;20489;-72
2021/12/31 02:22:01;;;;;;;9.82;2.38;;;13.00;99.90;;;;;;5075958;28;20173;-72
2021/12/31 02:24:26;;;;;;;11.40;3.00;;;13.10;99.90;;;;;;5091200;28;20040;-72
2021/12/31 02:26:52;;;;;;;13.07;3.25;;;13.10;99.90;;;;;;5095964;28;20043;-72
2021/12/31 02:29:19;;;;;;;12.30;2.15;;;13.00;99.90;;;;;;5078051;28;20039;-72
2021/12/31 02:31:45;;;;;;;9.27;2.30;;;13.10;99.90;;;;;;5110523;28;20040;-73
2021/12/31 02:34:11;;;;;;;14.55;3.10;;;13.10;99.90;;;;;;5112217;28;20368;-72
2021/12/31 02:36:36;;;;;;;5.90;1.52;;;13.20;99.90;;;;;;5126906;27;20039;-73
2021/12/31 02:39:03;;;;;;;12.70;2.67;;;13.20;99.90;;;;;;5087468;28;20503;-73
2021/12/31 02:41:29;;;;;;;8.85;1.95;;;13.10;99.90;;;;;;5092532;28;20488;-72
2021/12/31 02:43:55;;;;;;;10.85;2.67;;;13.10;99.90;;;;;;5109290;28;20147;-72
2021/12/31 02:46:21;;;;;;;9.52;2.70;;;13.00;99.90;;;;;;5093954;28;20055;-72
2021/12/31 02:48:55;;;;;;;10.18;4.05;;;13.00;99.90;;;;;;5112883;28;20039;-72
2021/12/31 02:51:21;;;;;;;11.10;2.58;;;13.10;99.90;;;;;;5110097;28;20038;-72
2021/12/31 02:53:52;;;;;;;5.72;1.83;;;13.10;99.90;;;;;;5092569;28;20044;-72
2021/12/31 02:56:19;;;;;;;7.83;2.20;;;13.10;99.90;;;;;;5075318;28;20036;-72
2021/12/31 02:58:45;;;;;;;5.93;1.95;;;13.10;99.90;;;;;;5092027;28;20047;-73
2021/12/31 03:01:12;;;;;;;7.90;2.42;;;13.20;99.90;;;;;;5111357;28;20067;-72
2021/12/31 03:03:40;;;;;;;12.00;2.40;;;13.10;99.90;;;;;;5095662;28;20087;-72
2021/12/31 03:06:07;;;;;;;10.00;2.85;;;13.30;99.90;;;;;;5075837;28;20434;-73
2021/12/31 03:08:40;;;;;;;7.28;2.45;;;13.20;99.90;;;;;;5092188;28;20075;-73
2021/12/31 03:11:06;;;;;;;9.85;3.03;;;13.20;99.90;;;;;;5093034;28;20039;-73
2021/12/31 03:13:34;;;;;;;7.80;2.10;;;13.30;99.90;;;;;;5106067;28;20043;-73
2021/12/31 03:16:02;;;;;;;6.30;2.38;;;13.30;99.90;;;;;;5075581;28;20400;-73
2021/12/31 03:18:28;;;;;;;11.68;3.25;;;13.30;99.90;;;;;;5084876;28;20038;-73
2021/12/31 03:20:59;;;;;;;8.55;2.47;;;13.30;99.90;;;;;;5112458;28;20119;-72
2021/12/31 03:23:26;;;;;;;9.38;2.60;;;13.30;99.90;;;;;;5111540;28;20047;-73
2021/12/31 03:25:52;;;;;;;8.82;2.50;;;13.30;99.90;;;;;;5112452;28;20048;-73
2021/12/31 03:28:18;;;;;;;10.38;2.05;;;13.30;99.90;;;;;;5094804;28;20484;-72
2021/12/31 03:30:45;;;;;;;8.52;2.70;;;13.50;99.90;;;;;;5095600;28;20134;-72
2021/12/31 03:33:10;;;;;;;8.35;2.45;;;13.50;99.90;;;;;;5078827;28;20036;-72
2021/12/31 03:35:36;;;;;;;11.02;2.63;;;13.60;99.90;;;;;;5091395;28;20032;-72
2021/12/31 03:38:01;;;;;;;9.07;3.08;;;13.50;99.90;;;;;;5106425;28;20046;-72
2021/12/31 03:40:27;;;;;;;7.95;2.83;;;13.50;99.90;;;;;;5125672;28;20519;-72
2021/12/31 03:42:53;;;;;;;12.48;2.58;;;13.40;99.90;;;;;;5125572;28;20067;-72
2021/12/31 03:45:18;;;;;;;7.70;2.28;;;13.40;99.90;;;;;;5108699;28;20060;-73
2021/12/31 03:47:44;;;;;;;8.00;2.15;;;13.50;99.90;;;;;;5108790;28;20082;-73
2021/12/31 03:50:10;;;;;;;5.63;1.92;;;13.40;99.90;;;;;;5125568;27;20036;-73
2021/12/31 03:52:39;;;;;;;5.13;1.70;;;13.50;99.90;;;;;;5111538;28;20044;-73
2021/12/31 03:55:10;;;;;;;10.32;2.30;;;13.50;99.90;;;;;;5107881;28;20391;-73
2021/12/31 03:57:36;;;;;;;5.32;1.42;;;13.40;99.90;;;;;;5094949;28;20526;-72
2021/12/31 04:00:10;;;;;;;5.97;1.77;;;13.40;99.90;;;;;;5110324;28;20549;-72
2021/12/31 04:02:36;;;;;;;10.23;2.35;;;13.40;99.90;;;;;;5095034;28;20087;-72
2021/12/31 04:05:03;;;;;;;10.68;2.50;;;13.40;99.90;;;;;;5109238;28;20122;-72
2021/12/31 04:07:28;;;;;;;5.75;1.73;;;13.30;99.90;;;;;;5130679;27;20043;-72
2021/12/31 04:09:54;;;;;;;9.75;2.30;;;13.50;99.90;;;;;;5131736;27;20067;-72
2021/12/31 04:12:19;;;;;;;9.25;2.47;;;13.40;99.90;;;;;;5150429;27;20130;-72
2021/12/31 04:14:45;;;;;;;10.20;2.05;;;13.40;99.90;;;;;;5147831;27;20036;-72
2021/12/31 04:17:10;;;;;;;10.32;2.70;;;13.30;99.90;;;;;;5098771;28;20399;-72
2021/12/31 04:19:36;;;;;;;7.68;1.92;;;13.50;99.90;;;;;;5145262;27;20568;-72
2021/12/31 04:22:03;;;;;;;3.55;1.48;;;13.40;99.90;;;;;;5102604;28;20039;-72
2021/12/31 04:27:10;;;;;;;7.82;2.03;;;13.60;99.90;;;;;;5115893;28;20047;-72
2021/12/31 04:29:35;;;;;;;5.38;1.60;;;13.60;99.90;;;;;;5112972;28;20078;-72
2021/12/31 04:32:02;;;;;;;4.65;1.40;;;13.50;99.90;;;;;;5150047;27;20071;-72
2021/12/31 04:34:28;;;;;;;5.03;1.55;;;13.50;99.90;;;;;;5086362;28;20483;-72
2021/12/31 04:36:54;;;;;;;4.90;1.40;;;13.60;99.90;;;;;;5110162;28;20111;-72
2021/12/31 04:39:20;;;;;;;4.47;1.45;;;13.60;99.90;;;;;;5096416;28;20047;-72
2021/12/31 04:41:45;;;;;;;6.85;2.03;;;13.60;99.90;;;;;;5114555;28;20036;-72
2021/12/31 04:44:11;;;;;;;6.35;2.30;;;13.40;99.90;;;;;;5141167;27;20081;-72
2021/12/31 04:46:37;;;;;;;5.72;1.63;;;13.30;99.90;;;;;;5128787;27;20040;-72
2021/12/31 04:49:03;;;;;;;9.10;2.15;;;13.40;99.90;;;;;;5115332;27;20039;-72
2021/12/31 04:51:28;;;;;;;7.88;2.03;;;13.40;99.90;;;;;;5111404;28;20044;-72
2021/12/31 04:53:54;;;;;;;5.72;1.90;;;13.50;99.90;;;;;;5129012;27;20070;-72
2021/12/31 04:56:20;;;;;;;8.68;2.30;;;13.40;99.90;;;;;;5073651;28;20381;-72
2021/12/31 04:58:46;;;;;;;7.78;2.20;;;13.40;99.90;;;;;;5090287;28;20029;-72
2021/12/31 05:01:11;;;;;;;7.45;1.92;;;13.60;99.90;;;;;;5111447;28;20454;-72
2021/12/31 05:03:37;;;;;;;6.72;2.28;;;13.60;99.90;;;;;;5090501;28;20647;-72
2021/12/31 05:06:02;;;;;;;7.20;2.63;;;13.70;99.90;;;;;;5098159;28;20511;-72
2021/12/31 05:08:28;;;;;;;8.32;2.35;;;13.70;99.90;;;;;;5070653;28;20082;-72
2021/12/31 05:10:53;;;;;;;10.30;3.55;;;13.70;99.90;;;;;;5124056;27;20040;-71
2021/12/31 05:13:19;;;;;;;6.70;3.28;;;13.70;99.90;;;;;;5122231;27;20052;-72
2021/12/31 05:15:47;;;;;;;10.10;4.20;;;13.70;99.90;;;;;;5088201;28;20038;-72
2021/12/31 05:18:13;;;;;;;5.78;2.47;;;13.50;99.90;;;;;;5078788;28;20028;-72
2021/12/31 05:20:39;;;;;;;6.35;2.35;;;13.70;99.90;;;;;;5085816;28;20481;-72
2021/12/31 05:23:05;;;;;;;8.18;2.30;;;13.60;99.90;;;;;;5091042;28;20381;-72
2021/12/31 05:25:30;;;;;;;5.15;3.00;;;13.60;99.90;;;;;;5110259;27;20093;-72
2021/12/31 05:27:56;;;;;;;6.20;2.83;;;13.60;99.90;;;;;;5114447;28;20499;-72
2021/12/31 05:30:22;;;;;;;7.80;3.35;;;13.60;99.90;;;;;;5131045;27;20039;-72
2021/12/31 05:32:48;;;;;;;8.48;3.53;;;13.60;99.90;;;;;;5103543;28;20044;-72
2021/12/31 05:35:14;;;;;;;6.72;2.83;;;13.50;99.90;;;;;;5096269;28;20036;-72
2021/12/31 05:37:40;;;;;;;8.35;3.30;;;13.60;99.90;;;;;;5112371;28;20032;-72
2021/12/31 05:40:06;;;;;;;3.97;1.88;;;13.50;99.90;;;;;;5090809;28;20164;-71
2021/12/31 05:42:32;;;;;;;3.95;2.03;;;13.50;99.90;;;;;;5111928;28;20095;-72
2021/12/31 05:44:58;;;;;;;6.63;3.20;;;13.60;99.90;;;;;;5105750;28;20060;-72
2021/12/31 05:47:24;;;;;;;5.75;2.13;;;13.60;99.90;;;;;;5142405;27;20040;-72
2021/12/31 05:49:50;;;;;;;9.35;2.78;;;13.60;99.90;;;;;;5110957;28;20092;-72
2021/12/31 05:52:15;;;;;;;7.50;2.90;;;13.60;99.90;;;;;;5127881;27;20525;-72
2021/12/31 05:54:41;;;;;;;5.05;2.60;;;13.50;99.90;;;;;;5143372;27;20027;-72
2021/12/31 05:57:07;;;;;;;6.85;2.33;;;13.60;99.90;;;;;;5096743;28;20039;-72
2021/12/31 05:59:33;;;;;;;5.22;1.83;;;13.50;99.90;;;;;;5106737;28;20039;-72
2021/12/31 06:01:58;;;;;;;6.05;2.40;;;13.60;99.90;;;;;;5078612;28;20036;-72
2021/12/31 06:04:24;;;;;;;6.35;2.05;;;13.60;99.90;;;;;;5086479;28;20043;-72
2021/12/31 06:06:49;;;;;;;4.97;1.85;;;13.70;99.90;;;;;;5111872;28;20518;-72
2021/12/31 06:09:15;;;;;;;5.20;2.05;;;13.60;99.90;;;;;;5076507;28;20036;-72
2021/12/31 06:11:41;;;;;;;6.38;2.75;;;13.70;99.90;;;;;;5096460;28;20040;-72
2021/12/31 06:14:09;;;;;;;6.57;1.83;;;13.60;99.90;;;;;;5093305;28;20051;-72
2021/12/31 06:16:40;;;;;;;6.45;1.98;;;13.70;99.90;;;;;;5112962;28;20100;-72
2021/12/31 06:19:07;;;;;;;7.25;2.35;;;13.50;99.90;;;;;;5115489;27;20035;-72
2021/12/31 06:21:34;;;;;;;5.90;2.15;;;13.60;99.90;;;;;;5101918;28;20043;-72
2021/12/31 06:24:01;;;;;;;9.18;3.05;;;13.50;99.90;;;;;;5089968;28;20035;-72
2021/12/31 06:26:27;;;;;;;7.55;2.20;;;13.40;99.90;;;;;;5111417;28;20036;-72
2021/12/31 06:28:52;;;;;;;3.58;1.75;;;13.40;99.90;;;;;;5141682;27;20470;-72
2021/12/31 06:31:18;;;;;;;2.83;1.30;;;13.50;99.90;;;;;;5109505;28;20047;-72
2021/12/31 06:33:43;;;;;;;4.03;1.63;;;13.60;99.90;;;;;;5104827;28;20038;-72
2021/12/31 06:36:09;;;;;;;6.20;1.83;;;13.60;99.90;;;;;;5094373;28;20116;-72
2021/12/31 06:38:35;;;;;;;7.20;2.05;;;13.50;99.90;;;;;;5101464;28;20161;-72
2021/12/31 06:41:00;;;;;;;4.47;1.60;;;13.50;99.90;;;;;;5093407;28;20032;-72
2021/12/31 06:43:26;;;;;;;5.85;2.15;;;13.60;99.90;;;;;;5090088;28;20056;-72
2021/12/31 06:45:52;;;;;;;7.38;1.92;;;13.50;99.90;;;;;;5082067;28;20118;-72
2021/12/31 06:48:17;;;;;;;5.78;1.63;;;13.50;99.90;;;;;;5097145;28;20047;-72
2021/12/31 06:50:43;;;;;;;3.55;1.25;;;13.60;99.90;;;;;;5118042;27;20487;-72
2021/12/31 06:53:08;;;;;;;8.77;1.52;;;13.60;99.90;;;;;;5116652;27;20063;-72
2021/12/31 06:55:34;;;;;;;5.07;1.40;;;13.50;99.90;;;;;;5087741;28;20089;-73
2021/12/31 06:57:59;;;;;;;2.85;1.20;;;13.50;99.90;;;;;;5113811;27;20040;-72
2021/12/31 07:00:25;;;;;;;5.82;1.90;;;13.60;99.90;;;;;;5075846;28;20034;-72
2021/12/31 07:02:50;;;;;;;2.30;1.15;;;13.50;99.90;;;;;;5114356;27;20549;-72
2021/12/31 07:05:17;;;;;;;6.13;1.77;;;13.40;99.90;;;;;;5083996;28;20075;-72
2021/12/31 07:07:42;;;;;;;5.45;1.77;;;13.40;99.90;;;;;;5093270;28;20062;-72
2021/12/31 07:10:08;;;;;;;4.88;1.98;;;13.40;99.90;;;;;;5104409;28;20048;-72
2021/12/31 07:12:34;;;;;;;2.97;1.48;;;13.30;99.90;;;;;;5132081;27;20126;-72
2021/12/31 07:14:59;;;;;;;5.30;2.20;;;13.40;99.90;;;;;;5121336;27;20040;-72
2021/12/31 07:17:28;;;;;;;7.22;1.88;;;13.40;99.90;;;;;;5110830;28;20129;-72
2021/12/31 07:19:54;;;;;;;5.38;1.95;;;13.30;99.90;;;;;;5121844;27;20492;-72
2021/12/31 07:22:21;;;;;;;4.00;1.35;;;13.20;99.90;;;;;;5135321;27;20043;-72
2021/12/31 07:24:47;;;;;;;5.47;1.90;;;13.30;99.90;;;;;;5112958;28;20043;-72
2021/12/31 07:27:12;;;;;;;2.80;1.40;;;13.20;99.90;;;;;;5124850;27;20039;-72
2021/12/31 07:29:38;;;;;;;4.47;1.80;;;13.30;99.90;;;;;;5097227;28;20036;-72
2021/12/31 07:32:04;;;;;;;5.70;1.60;;;13.30;99.90;;;;;;5098302;28;20032;-72
2021/12/31 07:34:29;;;;;;;2.92;1.10;;;13.20;99.90;;;;;;5113117;28;20035;-73
2021/12/31 07:36:55;;;;;;;4.78;2.05;;;13.20;99.90;;;;;;5100435;28;20504;-73
2021/12/31 07:39:24;;;;;;;6.35;1.63;;;13.20;99.90;;;;;;5077441;28;20208;-73
2021/12/31 07:41:51;;;;;;;6.50;1.65;;;13.20;99.90;;;;;;5086192;28;20039;-72
2021/12/31 07:44:16;;;;;;;2.80;1.48;;;13.30;99.90;;;;;;5113697;28;20079;-73
2021/12/31 07:46:43;;;;;;;4.05;1.58;;;13.20;99.90;;;;;;5099291;28;20404;-72
2021/12/31 07:49:09;;;;;;;9.23;2.70;;;13.30;99.90;;;;;;5114236;28;20096;-72
2021/12/31 07:51:35;;;;;;;7.40;2.03;;;13.10;99.90;;;;;;5144231;27;20483;-72
2021/12/31 07:54:00;;;;;;;7.43;2.35;;;13.10;99.90;;;;;;5083850;28;20088;-72
2021/12/31 07:56:26;;;;;;;7.05;2.00;;;13.10;99.90;;;;;;5150540;27;20039;-72
2021/12/31 07:58:51;;;;;;;3.58;1.73;;;13.10;99.90;;;;;;5115578;28;20571;-72
2021/12/31 08:01:17;;;;;;;4.22;1.98;;;13.10;99.90;;;;;;5113144;28;20071;-72
2021/12/31 08:03:43;;;;;;;7.43;2.15;;;13.00;99.90;;;;;;5099167;28;20039;-72
2021/12/31 08:06:08;;;;;;;5.32;1.98;;;13.10;99.90;;;;;;5098362;28;20039;-72
2021/12/31 08:08:34;;;;;;;6.55;2.42;;;13.00;99.90;;;;;;5098869;28;20035;-72
2021/12/31 08:11:00;;;;;;;7.15;2.03;;;13.00;99.90;;;;;;5140963;27;20055;-72
2021/12/31 08:13:26;;;;;;;5.10;2.33;;;13.10;99.90;;;;;;5112389;28;20036;-72
2021/12/31 08:15:52;;;;;;;6.05;2.42;;;13.00;99.90;;;;;;5116039;27;20038;-72
2021/12/31 08:18:17;;;;;;;4.93;1.95;;;13.10;99.90;;;;;;5115783;28;20039;-72
2021/12/31 08:20:43;;;;;;;6.95;2.40;;;13.10;99.90;;;;;;5113326;28;20032;-72
2021/12/31 08:23:10;;;;;;;5.55;2.58;;;13.20;99.90;;;;;;5149995;27;20047;-72
2021/12/31 08:25:37;;;;;;;5.70;2.20;;;13.10;99.90;;;;;;5114657;28;20055;-72
2021/12/31 08:28:03;;;;;;;5.45;2.13;;;13.20;99.90;;;;;;5098668;28;20123;-72
2021/12/31 08:30:28;;;;;;;5.43;2.22;;;13.20;99.90;;;;;;5112052;28;20518;-72
2021/12/31 08:32:54;;;;;;;2.90;1.60;;;13.30;99.90;;;;;;5149815;27;20044;-72
2021/12/31 08:35:19;;;;;;;5.05;1.60;;;13.30;99.90;;;;;;5096205;28;20110;-72
2021/12/31 08:37:45;;;;;;;5.55;2.00;;;13.30;99.90;;;;;;5132685;27;20126;-72
2021/12/31 08:40:11;;;;;;;6.57;2.42;;;13.20;99.90;;;;;;5114412;28;20032;-72
2021/12/31 08:42:39;;;;;;;5.70;1.90;;;13.10;99.90;;;;;;5115273;28;20040;-72
2021/12/31 08:45:05;;;;;;;6.97;2.47;;;13.30;99.90;;;;;;5109911;28;20503;-81
2021/12/31 08:47:31;;;;;;;4.72;1.77;;;13.20;99.90;;;;;;5101316;28;20051;-72
2021/12/31 08:49:57;;;;;;;6.57;2.80;;;13.30;99.90;;;;;;5088185;28;20037;-72
2021/12/31 08:52:22;;;;;;;4.50;1.52;;;13.20;99.90;;;;;;5110977;28;20113;-72
2021/12/31 08:54:48;;;;;;;6.25;2.25;;;13.30;99.90;;;;;;5110172;28;20059;-72
2021/12/31 08:57:14;;;;;;;6.65;2.50;;;13.30;99.90;;;;;;5094841;28;20047;-72
2021/12/31 08:59:40;;;;;;;6.22;2.00;;;13.30;99.90;;;;;;5080917;28;20043;-72
2021/12/31 09:02:05;;;;;;;4.03;1.80;;;13.30;99.90;;;;;;5131054;27;20392;-72
2021/12/31 09:04:32;;;;;;;7.38;2.55;;;13.40;99.90;;;;;;5113678;28;20506;-72
2021/12/31 09:06:57;;;;;;;6.63;2.70;;;13.20;99.90;;;;;;5126758;27;20495;-72
2021/12/31 09:09:23;;;;;;;7.20;2.80;;;13.40;99.90;;;;;;5115774;27;20321;-72
2021/12/31 09:11:48;;;;;;;7.15;2.75;;;13.20;99.90;;;;;;5112515;28;20050;-72
2021/12/31 09:14:14;;;;;;;5.25;2.80;;;13.30;99.90;;;;;;5097545;28;20046;-72
2021/12/31 09:16:40;;;;;;;4.30;2.20;;;13.30;99.90;;;;;;5138458;27;20032;-72
2021/12/31 09:19:05;;;;;;;9.70;3.72;;;13.30;99.90;;;;;;5099209;28;20443;-72
2021/12/31 09:21:31;;;;;;;8.30;3.15;;;13.20;99.90;;;;;;5110403;27;20450;-72
2021/12/31 09:23:56;;;;;;;6.32;2.63;;;13.20;99.90;;;;;;5101978;28;20594;-72
2021/12/31 09:26:22;;;;;;;6.68;2.60;;;13.30;99.90;;;;;;5094467;28;20055;-72
2021/12/31 09:28:47;;;;;;;6.38;2.60;;;13.30;99.90;;;;;;5103876;28;20077;-72
2021/12/31 09:31:13;;;;;;;5.22;2.00;;;13.20;99.90;;;;;;5117226;27;20042;-72
2021/12/31 09:33:39;;;;;;;9.13;3.03;;;13.30;99.90;;;;;;5108460;28;20515;-72
2021/12/31 09:36:05;;;;;;;6.90;2.53;;;13.40;99.90;;;;;;5113608;28;20438;-72
2021/12/31 09:38:31;;;;;;;6.78;2.33;;;13.20;99.90;;;;;;5090161;28;20028;-72
2021/12/31 09:40:56;;;;;;;6.05;2.65;;;13.30;99.90;;;;;;5110262;28;20051;-72
2021/12/31 09:43:22;;;;;;;5.43;2.38;;;13.30;99.90;;;;;;5111877;28;20044;-72
2021/12/31 09:45:50;;;;;;;5.32;2.22;;;13.20;99.90;;;;;;5108194;28;20088;-72
2021/12/31 09:48:21;;;;;;;9.27;2.90;;;13.30;99.90;;;;;;5113890;27;20616;-72
2021/12/31 09:50:49;;;;;;;5.38;2.20;;;13.20;99.90;;;;;;5091981;28;20066;-72
2021/12/31 09:53:16;;;;;;;6.20;2.47;;;13.20;99.90;;;;;;5113083;27;20177;-72
2021/12/31 09:55:46;;;;;;;6.18;2.30;;;13.20;99.90;;;;;;5110104;28;20092;-72
2021/12/31 09:58:14;;;;;;;8.07;2.42;;;13.20;99.90;;;;;;5114644;27;20038;-72
2021/12/31 10:00:42;;;;;;;9.10;2.58;;;13.30;99.90;;;;;;5082207;28;20111;-72
2021/12/31 10:03:25;;;;;;;6.18;2.30;;;13.30;99.90;;;;;;5092742;28;20119;-72
2021/12/31 10:06:11;;;;;;;5.18;2.30;;;13.30;99.90;;;;;;5111450;28;20491;-72
2021/12/31 10:08:45;;;;;;;8.63;2.42;;;13.20;99.90;;;;;;5096823;28;20063;-72
2021/12/31 10:11:12;;;;;;;6.05;2.50;;;13.20;99.90;;;;;;5075556;28;20050;-72
2021/12/31 10:13:43;;;;;;;5.43;2.40;;;13.20;99.90;;;;;;5095998;28;20040;-72
2021/12/31 10:16:20;;;;;;;4.93;1.83;;;13.20;99.90;;;;;;5092722;28;20104;-72
2021/12/31 10:18:47;;;;;;;4.13;1.60;;;13.30;99.90;;;;;;5075611;28;20514;-72
2021/12/31 10:21:13;;;;;;;6.65;1.90;;;13.40;99.90;;;;;;5093182;28;20493;-72
2021/12/31 10:23:39;;;;;;;6.00;2.53;;;13.30;99.90;;;;;;5117686;27;20134;-72
2021/12/31 10:26:06;;;;;;;7.32;2.40;;;13.30;99.90;;;;;;5075713;28;20044;-72
2021/12/31 10:28:32;;;;;;;7.80;2.33;;;13.30;99.90;;;;;;5100852;28;20137;-73
2021/12/31 10:31:14;;;;;;;6.78;2.95;;;13.20;99.90;;;;;;5129808;27;20039;-72
2021/12/31 10:33:45;;;;;;;6.45;2.65;;;13.20;99.90;;;;;;5098893;28;20153;-72
2021/12/31 10:36:37;;;;;;;6.90;3.10;;;13.20;99.90;;;;;;5117539;27;20036;-72
2021/12/31 10:39:26;;;;;;;7.70;2.45;;;13.10;99.90;;;;;;5093873;28;20497;-72
2021/12/31 10:42:01;;;;;;;6.55;2.40;;;13.30;99.90;;;;;;5108453;28;20047;-72
2021/12/31 10:44:49;;;;;;;8.50;3.03;;;13.10;99.90;;;;;;5084405;28;20637;-72
2021/12/31 10:47:29;;;;;;;8.40;2.92;;;13.10;99.90;;;;;;5111727;28;20070;-72
2021/12/31 10:50:04;;;;;;;6.60;3.00;;;13.20;99.90;;;;;;5092496;28;20036;-72
2021/12/31 10:52:39;;;;;;;7.72;2.53;;;13.20;99.90;;;;;;5094464;28;20492;-72
2021/12/31 10:55:23;;;;;;;7.55;2.90;;;13.00;99.90;;;;;;5107870;28;20035;-72
2021/12/31 10:57:52;;;;;;;6.72;2.47;;;13.00;99.90;;;;;;5092521;28;20043;-72
2021/12/31 11:00:19;;;;;;;5.68;2.70;;;13.00;99.90;;;;;;5079537;28;20066;-72
2021/12/31 11:02:46;;;;;;;7.38;2.78;;;13.00;99.90;;;;;;5109861;28;20056;-72
2021/12/31 11:05:14;;;;;;;8.50;3.08;;;13.00;99.90;;;;;;5111682;28;20039;-72
2021/12/31 11:07:40;;;;;;;5.85;2.13;;;12.90;99.90;;;;;;5115424;27;21210;-72
2021/12/31 11:10:07;;;;;;;6.78;2.45;;;13.00;99.90;;;;;;5087466;28;20438;-72
2021/12/31 11:12:34;;;;;;;8.02;3.05;;;13.00;99.90;;;;;;5104390;28;20397;-72
2021/12/31 11:15:01;;;;;;;5.80;2.45;;;13.10;99.90;;;;;;5091832;28;20078;-72
2021/12/31 11:17:27;;;;;;;8.23;2.65;;;13.00;99.90;;;;;;5091333;28;20514;-72
2021/12/31 11:19:53;;;;;;;6.85;2.58;;;13.00;99.90;;;;;;5075495;28;20044;-72
2021/12/31 11:22:24;;;;;;;8.43;3.08;;;13.00;99.90;;;;;;5099682;28;20484;-72
2021/12/31 11:24:49;;;;;;;6.32;3.15;;;12.80;99.90;;;;;;5111891;28;20048;-73
2021/12/31 11:27:37;;;;;;;6.40;2.85;;;12.60;99.90;;;;;;5111752;28;20051;-73
2021/12/31 11:30:03;;;;;;;7.20;3.08;;;12.60;99.90;;;;;;5112345;28;20039;-72
2021/12/31 11:32:47;;;;;;;9.32;3.30;;;12.70;99.90;;;;;;5104160;28;20044;-72
2021/12/31 11:35:40;;;;;;;7.25;2.70;;;12.70;99.90;;;;;;5146493;27;20047;-73
2021/12/31 11:38:06;;;;;;;;;;;12.80;99.90;;;;;;5093900;28;20123;-73
2021/12/31 11:40:38;;;;;;;8.20;2.92;;;12.60;99.90;;;;;;5106169;28;19969;-72
2021/12/31 11:43:24;;;;;;;8.85;3.53;;;12.70;99.90;;;;;;5086812;28;20071;-72
2021/12/31 11:46:09;;;;;;;10.18;3.70;;;12.60;99.90;;;;;;5074574;28;20044;-73
2021/12/31 11:48:44;;;;;;;7.55;3.13;;;12.50;99.90;;;;;;5092032;28;20052;-72
2021/12/31 11:51:11;;;;;;;8.85;4.00;;;12.60;99.90;;;;;;5099745;28;20380;-72
2021/12/31 11:53:55;;;;;;;8.07;3.78;;;12.70;99.90;;;;;;5104323;28;20408;-72
2021/12/31 11:56:36;;;;;;;9.07;3.65;;;12.70;99.90;;;;;;5121964;28;20039;-72
2021/12/31 11:59:08;;;;;;;7.28;3.47;;;12.70;99.90;;;;;;5108106;28;20040;-72
2021/12/31 12:01:36;;;;;;;8.85;4.10;;;12.70;99.90;;;;;;5093286;28;20104;-72
2021/12/31 12:04:17;;;;;;;9.30;4.20;;;12.60;99.90;;;;;;5127926;27;20040;-72
2021/12/31 12:07:05;;;;;;;10.63;4.28;;;12.40;99.90;;;;;;5127077;27;20057;-72
2021/12/31 12:09:37;;;;;;;11.52;4.65;;;12.50;99.90;;;;;;5096118;28;20043;-73
2021/12/31 12:12:21;;;;;;;8.25;3.83;;;12.40;99.90;;;;;;5119667;28;20078;-79
2021/12/31 12:14:51;;;;;;;10.23;4.20;;;12.30;99.90;;;;;;5139457;27;20100;-73
2021/12/31 12:17:29;;;;;;;12.55;4.50;;;12.30;99.90;;;;;;5094845;28;20498;-73
2021/12/31 12:20:00;;;;;;;10.60;4.53;;;12.10;99.90;;;;;;5093428;28;20508;-73
2021/12/31 12:22:40;;;;;;;10.23;4.63;;;12.00;99.90;;;;;;5136780;27;20043;-73
2021/12/31 12:25:15;;;;;;;8.27;3.70;;;12.20;99.90;;;;;;5090840;28;20044;-74
2021/12/31 12:27:42;;;;;;;10.63;4.30;;;12.30;99.90;;;;;;5091164;28;20039;-75
2021/12/31 12:30:11;;;;;;;11.63;4.18;;;12.20;99.90;;;;;;5082325;28;20044;-76
2021/12/31 12:32:40;;;;;;;8.27;3.78;;;12.20;99.90;;;;;;5114981;28;20040;-76
2021/12/31 12:35:27;;;;;;;8.38;3.95;;;12.30;99.90;;;;;;5097975;28;20073;-76
2021/12/31 12:37:56;;;;;;;8.90;3.72;;;12.30;99.90;;;;;;5093383;28;20457;-76
2021/12/31 12:40:37;;;;;;;7.93;3.90;;;12.20;99.90;;;;;;5083110;28;20036;-76
2021/12/31 12:43:25;;;;;;;7.43;3.10;;;12.40;99.90;;;;;;5095107;28;20396;-77
2021/12/31 12:46:00;;;;;;;11.82;4.78;;;12.40;99.90;;;;;;5085041;28;20039;-77
2021/12/31 12:48:35;;;;;;;8.75;4.00;;;12.20;99.90;;;;;;5098486;28;20130;-76
2021/12/31 12:51:06;;;;;;;9.00;3.90;;;12.40;99.90;;;;;;5138147;27;20098;-76
2021/12/31 12:53:36;;;;;;;6.77;3.00;;;12.40;99.90;;;;;;5111729;28;20097;-76